sensor_id;sensor_type;location;lat;lon;timestamp;P1;durP1;ratioP1;P2;durP2;ratioP2
34673;SDS011;20879;55.668;37.858;2023-05-23T00:01:40;17.70;;;11.75;;
34673;SDS011;20879;55.668;37.858;2023-05-23T00:04:11;16.20;;;11.75;;
34673;SDS011;20879;55.668;37.858;2023-05-23T00:06:49;19.63;;;12.30;;
34673;SDS011;20879;55.668;37.858;2023-05-23T00:09:24;17.38;;;11.25;;
34673;SDS011;20879;55.668;37.858;2023-05-23T00:11:53;16.85;;;11.68;;
34673;SDS011;20879;55.668;37.858;2023-05-23T00:14:23;17.48;;;12.20;;
34673;SDS011;20879;55.668;37.858;2023-05-23T00:16:54;20.13;;;12.60;;
34673;SDS011;20879;55.668;37.858;2023-05-23T00:19:30;18.20;;;12.25;;
34673;SDS011;20879;55.668;37.858;2023-05-23T00:22:01;18.90;;;12.07;;
34673;SDS011;20879;55.668;37.858;2023-05-23T00:24:31;20.58;;;13.40;;
34673;SDS011;20879;55.668;37.858;2023-05-23T00:27:00;17.90;;;11.90;;
34673;SDS011;20879;55.668;37.858;2023-05-23T00:29:30;18.33;;;12.77;;
34673;SDS011;20879;55.668;37.858;2023-05-23T00:32:01;23.13;;;13.13;;
34673;SDS011;20879;55.668;37.858;2023-05-23T00:34:31;20.40;;;12.07;;
34673;SDS011;20879;55.668;37.858;2023-05-23T00:37:00;19.65;;;12.52;;
34673;SDS011;20879;55.668;37.858;2023-05-23T00:39:30;19.17;;;12.10;;
34673;SDS011;20879;55.668;37.858;2023-05-23T00:42:02;19.65;;;13.02;;
34673;SDS011;20879;55.668;37.858;2023-05-23T00:44:33;19.10;;;12.02;;
34673;SDS011;20879;55.668;37.858;2023-05-23T00:47:04;16.05;;;10.95;;
34673;SDS011;20879;55.668;37.858;2023-05-23T00:49:36;19.70;;;11.45;;
34673;SDS011;20879;55.668;37.858;2023-05-23T00:52:17;18.10;;;12.02;;
34673;SDS011;20879;55.668;37.858;2023-05-23T00:54:46;16.48;;;11.60;;
34673;SDS011;20879;55.668;37.858;2023-05-23T00:57:17;19.75;;;12.30;;
34673;SDS011;20879;55.668;37.858;2023-05-23T00:59:46;17.45;;;11.30;;
34673;SDS011;20879;55.668;37.858;2023-05-23T01:02:18;18.52;;;11.45;;
34673;SDS011;20879;55.668;37.858;2023-05-23T01:04:48;16.27;;;10.75;;
34673;SDS011;20879;55.668;37.858;2023-05-23T01:07:25;15.10;;;9.35;;
34673;SDS011;20879;55.668;37.858;2023-05-23T01:09:54;18.85;;;9.32;;
34673;SDS011;20879;55.668;37.858;2023-05-23T01:12:27;15.20;;;9.05;;
34673;SDS011;20879;55.668;37.858;2023-05-23T01:15:03;15.18;;;10.68;;
34673;SDS011;20879;55.668;37.858;2023-05-23T01:17:43;15.27;;;8.43;;
34673;SDS011;20879;55.668;37.858;2023-05-23T01:20:22;17.60;;;8.25;;
34673;SDS011;20879;55.668;37.858;2023-05-23T01:23:06;14.18;;;8.70;;
34673;SDS011;20879;55.668;37.858;2023-05-23T01:25:46;16.33;;;9.95;;
34673;SDS011;20879;55.668;37.858;2023-05-23T01:28:28;13.60;;;8.60;;
34673;SDS011;20879;55.668;37.858;2023-05-23T01:31:01;13.45;;;8.40;;
34673;SDS011;20879;55.668;37.858;2023-05-23T01:33:32;15.57;;;8.82;;
34673;SDS011;20879;55.668;37.858;2023-05-23T01:36:08;18.67;;;9.30;;
34673;SDS011;20879;55.668;37.858;2023-05-23T01:38:40;13.38;;;8.25;;
34673;SDS011;20879;55.668;37.858;2023-05-23T01:41:10;13.65;;;7.95;;
34673;SDS011;20879;55.668;37.858;2023-05-23T01:43:41;13.90;;;8.45;;
34673;SDS011;20879;55.668;37.858;2023-05-23T01:46:13;16.83;;;9.40;;
34673;SDS011;20879;55.668;37.858;2023-05-23T01:48:44;17.38;;;9.15;;
34673;SDS011;20879;55.668;37.858;2023-05-23T01:51:20;16.48;;;7.85;;
34673;SDS011;20879;55.668;37.858;2023-05-23T01:53:56;12.77;;;8.55;;
34673;SDS011;20879;55.668;37.858;2023-05-23T01:56:25;16.60;;;8.25;;
34673;SDS011;20879;55.668;37.858;2023-05-23T01:58:58;10.65;;;7.78;;
34673;SDS011;20879;55.668;37.858;2023-05-23T02:01:34;14.88;;;8.63;;
34673;SDS011;20879;55.668;37.858;2023-05-23T02:04:06;16.35;;;9.07;;
34673;SDS011;20879;55.668;37.858;2023-05-23T02:06:35;13.38;;;8.55;;
34673;SDS011;20879;55.668;37.858;2023-05-23T02:09:04;15.68;;;8.95;;
34673;SDS011;20879;55.668;37.858;2023-05-23T02:11:34;18.15;;;10.02;;
34673;SDS011;20879;55.668;37.858;2023-05-23T02:14:10;17.48;;;8.23;;
34673;SDS011;20879;55.668;37.858;2023-05-23T02:16:41;13.63;;;8.48;;
34673;SDS011;20879;55.668;37.858;2023-05-23T02:19:16;13.93;;;9.07;;
34673;SDS011;20879;55.668;37.858;2023-05-23T02:21:52;17.17;;;9.85;;
34673;SDS011;20879;55.668;37.858;2023-05-23T02:24:23;18.85;;;9.48;;
34673;SDS011;20879;55.668;37.858;2023-05-23T02:26:57;16.00;;;9.10;;
34673;SDS011;20879;55.668;37.858;2023-05-23T02:29:29;15.82;;;9.07;;
34673;SDS011;20879;55.668;37.858;2023-05-23T02:31:58;13.38;;;8.15;;
34673;SDS011;20879;55.668;37.858;2023-05-23T02:34:33;16.92;;;8.15;;
34673;SDS011;20879;55.668;37.858;2023-05-23T02:37:04;16.33;;;8.80;;
34673;SDS011;20879;55.668;37.858;2023-05-23T02:39:35;14.15;;;8.95;;
34673;SDS011;20879;55.668;37.858;2023-05-23T02:42:04;16.30;;;8.77;;
34673;SDS011;20879;55.668;37.858;2023-05-23T02:44:36;15.85;;;10.52;;
34673;SDS011;20879;55.668;37.858;2023-05-23T02:47:06;15.93;;;9.88;;
34673;SDS011;20879;55.668;37.858;2023-05-23T02:49:40;17.27;;;10.15;;
34673;SDS011;20879;55.668;37.858;2023-05-23T02:52:10;14.05;;;9.70;;
34673;SDS011;20879;55.668;37.858;2023-05-23T02:54:48;16.42;;;10.05;;
34673;SDS011;20879;55.668;37.858;2023-05-23T02:57:18;24.73;;;10.85;;
34673;SDS011;20879;55.668;37.858;2023-05-23T02:59:49;18.73;;;10.63;;
34673;SDS011;20879;55.668;37.858;2023-05-23T03:02:18;14.23;;;10.27;;
34673;SDS011;20879;55.668;37.858;2023-05-23T03:04:48;15.30;;;10.43;;
34673;SDS011;20879;55.668;37.858;2023-05-23T03:07:18;15.27;;;9.95;;
34673;SDS011;20879;55.668;37.858;2023-05-23T03:09:55;16.20;;;9.70;;
34673;SDS011;20879;55.668;37.858;2023-05-23T03:12:24;15.55;;;10.18;;
34673;SDS011;20879;55.668;37.858;2023-05-23T03:15:01;14.63;;;9.18;;
34673;SDS011;20879;55.668;37.858;2023-05-23T03:20:08;14.27;;;8.93;;
34673;SDS011;20879;55.668;37.858;2023-05-23T03:22:45;18.38;;;9.23;;
34673;SDS011;20879;55.668;37.858;2023-05-23T03:25:16;14.88;;;8.65;;
34673;SDS011;20879;55.668;37.858;2023-05-23T03:27:46;15.13;;;8.75;;
34673;SDS011;20879;55.668;37.858;2023-05-23T03:30:17;17.05;;;8.65;;
34673;SDS011;20879;55.668;37.858;2023-05-23T03:32:53;14.95;;;9.10;;
34673;SDS011;20879;55.668;37.858;2023-05-23T03:35:28;20.27;;;9.10;;
34673;SDS011;20879;55.668;37.858;2023-05-23T03:37:58;13.85;;;9.00;;
34673;SDS011;20879;55.668;37.858;2023-05-23T03:40:27;14.95;;;8.32;;
34673;SDS011;20879;55.668;37.858;2023-05-23T03:43:03;13.35;;;8.25;;
34673;SDS011;20879;55.668;37.858;2023-05-23T03:45:43;14.70;;;9.18;;
34673;SDS011;20879;55.668;37.858;2023-05-23T03:48:16;18.52;;;9.15;;
34673;SDS011;20879;55.668;37.858;2023-05-23T03:50:46;14.63;;;8.02;;
34673;SDS011;20879;55.668;37.858;2023-05-23T03:53:17;12.70;;;8.13;;
34673;SDS011;20879;55.668;37.858;2023-05-23T03:56:05;14.90;;;8.32;;
34673;SDS011;20879;55.668;37.858;2023-05-23T03:58:41;15.43;;;7.63;;
34673;SDS011;20879;55.668;37.858;2023-05-23T04:01:16;12.57;;;7.65;;
34673;SDS011;20879;55.668;37.858;2023-05-23T04:06:34;18.55;;;8.00;;
34673;SDS011;20879;55.668;37.858;2023-05-23T04:11:43;20.85;;;7.50;;
34673;SDS011;20879;55.668;37.858;2023-05-23T04:14:19;23.75;;;7.60;;
34673;SDS011;20879;55.668;37.858;2023-05-23T04:16:51;14.05;;;7.32;;
34673;SDS011;20879;55.668;37.858;2023-05-23T04:19:21;16.25;;;7.10;;
34673;SDS011;20879;55.668;37.858;2023-05-23T04:21:52;14.73;;;7.10;;
34673;SDS011;20879;55.668;37.858;2023-05-23T04:24:22;16.60;;;6.80;;
34673;SDS011;20879;55.668;37.858;2023-05-23T04:26:52;19.13;;;7.65;;
34673;SDS011;20879;55.668;37.858;2023-05-23T04:29:22;17.45;;;7.80;;
34673;SDS011;20879;55.668;37.858;2023-05-23T04:31:56;17.13;;;7.68;;
34673;SDS011;20879;55.668;37.858;2023-05-23T04:34:27;16.45;;;6.78;;
34673;SDS011;20879;55.668;37.858;2023-05-23T04:37:00;15.10;;;7.63;;
34673;SDS011;20879;55.668;37.858;2023-05-23T04:39:31;11.73;;;7.25;;
34673;SDS011;20879;55.668;37.858;2023-05-23T04:42:14;14.38;;;7.70;;
34673;SDS011;20879;55.668;37.858;2023-05-23T04:45:01;11.90;;;6.80;;
34673;SDS011;20879;55.668;37.858;2023-05-23T04:47:47;13.18;;;7.13;;
34673;SDS011;20879;55.668;37.858;2023-05-23T04:50:32;12.30;;;6.70;;
34673;SDS011;20879;55.668;37.858;2023-05-23T04:53:03;13.57;;;7.57;;
34673;SDS011;20879;55.668;37.858;2023-05-23T04:55:39;14.50;;;7.20;;
34673;SDS011;20879;55.668;37.858;2023-05-23T04:58:13;13.95;;;7.00;;
34673;SDS011;20879;55.668;37.858;2023-05-23T05:00:43;10.00;;;6.60;;
34673;SDS011;20879;55.668;37.858;2023-05-23T05:03:17;15.65;;;6.45;;
34673;SDS011;20879;55.668;37.858;2023-05-23T05:05:47;13.48;;;6.72;;
34673;SDS011;20879;55.668;37.858;2023-05-23T05:08:17;11.43;;;5.88;;
34673;SDS011;20879;55.668;37.858;2023-05-23T05:10:47;12.88;;;6.22;;
34673;SDS011;20879;55.668;37.858;2023-05-23T05:13:22;7.88;;;5.93;;
34673;SDS011;20879;55.668;37.858;2023-05-23T05:15:54;9.77;;;5.78;;
34673;SDS011;20879;55.668;37.858;2023-05-23T05:18:26;9.77;;;6.30;;
34673;SDS011;20879;55.668;37.858;2023-05-23T05:20:57;12.73;;;5.75;;
34673;SDS011;20879;55.668;37.858;2023-05-23T05:23:34;10.10;;;5.75;;
34673;SDS011;20879;55.668;37.858;2023-05-23T05:26:06;17.60;;;6.18;;
34673;SDS011;20879;55.668;37.858;2023-05-23T05:28:36;12.45;;;5.90;;
34673;SDS011;20879;55.668;37.858;2023-05-23T05:31:12;15.40;;;6.38;;
34673;SDS011;20879;55.668;37.858;2023-05-23T05:33:44;12.85;;;6.10;;
34673;SDS011;20879;55.668;37.858;2023-05-23T05:36:15;8.70;;;5.82;;
34673;SDS011;20879;55.668;37.858;2023-05-23T05:38:45;11.70;;;6.55;;
34673;SDS011;20879;55.668;37.858;2023-05-23T05:41:22;10.73;;;6.07;;
34673;SDS011;20879;55.668;37.858;2023-05-23T05:43:53;14.40;;;6.22;;
34673;SDS011;20879;55.668;37.858;2023-05-23T05:46:23;13.57;;;6.28;;
34673;SDS011;20879;55.668;37.858;2023-05-23T05:48:55;16.08;;;6.30;;
34673;SDS011;20879;55.668;37.858;2023-05-23T05:51:25;11.57;;;6.28;;
34673;SDS011;20879;55.668;37.858;2023-05-23T05:53:55;10.55;;;6.40;;
34673;SDS011;20879;55.668;37.858;2023-05-23T05:56:29;11.20;;;6.15;;
34673;SDS011;20879;55.668;37.858;2023-05-23T05:59:00;10.68;;;5.93;;
34673;SDS011;20879;55.668;37.858;2023-05-23T06:01:31;11.60;;;5.97;;
34673;SDS011;20879;55.668;37.858;2023-05-23T06:04:02;15.73;;;6.25;;
34673;SDS011;20879;55.668;37.858;2023-05-23T06:06:38;12.23;;;6.20;;
34673;SDS011;20879;55.668;37.858;2023-05-23T06:09:08;14.20;;;6.45;;
34673;SDS011;20879;55.668;37.858;2023-05-23T06:11:38;9.32;;;5.43;;
34673;SDS011;20879;55.668;37.858;2023-05-23T06:14:13;12.65;;;6.25;;
34673;SDS011;20879;55.668;37.858;2023-05-23T06:16:49;7.10;;;4.43;;
34673;SDS011;20879;55.668;37.858;2023-05-23T06:19:21;10.35;;;5.10;;
34673;SDS011;20879;55.668;37.858;2023-05-23T06:21:54;7.57;;;4.60;;
34673;SDS011;20879;55.668;37.858;2023-05-23T06:24:29;16.52;;;5.10;;
34673;SDS011;20879;55.668;37.858;2023-05-23T06:29:40;12.70;;;5.47;;
34673;SDS011;20879;55.668;37.858;2023-05-23T06:32:09;16.23;;;5.60;;
34673;SDS011;20879;55.668;37.858;2023-05-23T06:34:41;10.70;;;4.88;;
34673;SDS011;20879;55.668;37.858;2023-05-23T06:39:39;11.50;;;4.53;;
34673;SDS011;20879;55.668;37.858;2023-05-23T06:42:09;13.55;;;4.78;;
34673;SDS011;20879;55.668;37.858;2023-05-23T06:45:16;8.90;;;4.80;;
34673;SDS011;20879;55.668;37.858;2023-05-23T06:47:51;8.23;;;4.40;;
34673;SDS011;20879;55.668;37.858;2023-05-23T06:50:22;10.13;;;4.65;;
34673;SDS011;20879;55.668;37.858;2023-05-23T06:52:57;9.15;;;4.25;;
34673;SDS011;20879;55.668;37.858;2023-05-23T06:55:26;16.27;;;4.53;;
34673;SDS011;20879;55.668;37.858;2023-05-23T06:57:56;7.50;;;4.47;;
34673;SDS011;20879;55.668;37.858;2023-05-23T07:00:26;12.93;;;5.30;;
34673;SDS011;20879;55.668;37.858;2023-05-23T07:03:14;10.15;;;4.70;;
34673;SDS011;20879;55.668;37.858;2023-05-23T07:05:46;13.82;;;4.97;;
34673;SDS011;20879;55.668;37.858;2023-05-23T07:08:21;10.30;;;5.47;;
34673;SDS011;20879;55.668;37.858;2023-05-23T07:11:02;13.65;;;5.03;;
34673;SDS011;20879;55.668;37.858;2023-05-23T07:13:41;11.05;;;4.63;;
34673;SDS011;20879;55.668;37.858;2023-05-23T07:16:20;12.48;;;4.28;;
34673;SDS011;20879;55.668;37.858;2023-05-23T07:18:57;9.10;;;4.68;;
34673;SDS011;20879;55.668;37.858;2023-05-23T07:21:35;10.38;;;4.97;;
34673;SDS011;20879;55.668;37.858;2023-05-23T07:24:06;9.77;;;4.68;;
34673;SDS011;20879;55.668;37.858;2023-05-23T07:26:36;7.47;;;4.50;;
34673;SDS011;20879;55.668;37.858;2023-05-23T07:29:06;13.40;;;5.07;;
34673;SDS011;20879;55.668;37.858;2023-05-23T07:31:41;8.90;;;4.20;;
34673;SDS011;20879;55.668;37.858;2023-05-23T07:34:12;9.45;;;4.30;;
34673;SDS011;20879;55.668;37.858;2023-05-23T07:36:52;7.07;;;4.30;;
34673;SDS011;20879;55.668;37.858;2023-05-23T07:39:24;11.68;;;4.88;;
34673;SDS011;20879;55.668;37.858;2023-05-23T07:41:56;8.15;;;4.45;;
34673;SDS011;20879;55.668;37.858;2023-05-23T07:47:02;10.25;;;4.43;;
34673;SDS011;20879;55.668;37.858;2023-05-23T07:49:33;7.57;;;4.55;;
34673;SDS011;20879;55.668;37.858;2023-05-23T07:52:05;10.03;;;3.67;;
34673;SDS011;20879;55.668;37.858;2023-05-23T07:54:37;12.60;;;3.53;;
34673;SDS011;20879;55.668;37.858;2023-05-23T07:57:08;9.82;;;3.50;;
34673;SDS011;20879;55.668;37.858;2023-05-23T07:59:43;6.22;;;3.33;;
34673;SDS011;20879;55.668;37.858;2023-05-23T08:02:13;5.93;;;3.58;;
34673;SDS011;20879;55.668;37.858;2023-05-23T08:04:48;5.57;;;3.33;;
34673;SDS011;20879;55.668;37.858;2023-05-23T08:07:21;8.25;;;3.80;;
34673;SDS011;20879;55.668;37.858;2023-05-23T08:09:55;8.82;;;3.20;;
34673;SDS011;20879;55.668;37.858;2023-05-23T08:12:24;13.10;;;3.45;;
34673;SDS011;20879;55.668;37.858;2023-05-23T08:15:11;9.15;;;3.47;;
34673;SDS011;20879;55.668;37.858;2023-05-23T08:17:50;8.88;;;3.40;;
34673;SDS011;20879;55.668;37.858;2023-05-23T08:20:22;5.55;;;3.03;;
34673;SDS011;20879;55.668;37.858;2023-05-23T08:23:00;6.68;;;3.60;;
34673;SDS011;20879;55.668;37.858;2023-05-23T08:25:30;9.73;;;3.45;;
34673;SDS011;20879;55.668;37.858;2023-05-23T08:28:01;8.80;;;3.30;;
34673;SDS011;20879;55.668;37.858;2023-05-23T08:30:56;6.18;;;3.25;;
34673;SDS011;20879;55.668;37.858;2023-05-23T08:33:28;6.45;;;3.10;;
34673;SDS011;20879;55.668;37.858;2023-05-23T08:35:58;6.88;;;3.10;;
34673;SDS011;20879;55.668;37.858;2023-05-23T08:38:37;5.43;;;3.28;;
34673;SDS011;20879;55.668;37.858;2023-05-23T08:41:33;7.47;;;3.28;;
34673;SDS011;20879;55.668;37.858;2023-05-23T08:44:12;8.55;;;3.50;;
34673;SDS011;20879;55.668;37.858;2023-05-23T08:46:47;7.18;;;3.70;;
34673;SDS011;20879;55.668;37.858;2023-05-23T08:49:36;10.65;;;3.70;;
34673;SDS011;20879;55.668;37.858;2023-05-23T08:52:07;6.03;;;3.58;;
34673;SDS011;20879;55.668;37.858;2023-05-23T08:54:50;11.45;;;3.63;;
34673;SDS011;20879;55.668;37.858;2023-05-23T08:57:26;5.38;;;3.97;;
34673;SDS011;20879;55.668;37.858;2023-05-23T09:00:02;8.50;;;4.43;;
34673;SDS011;20879;55.668;37.858;2023-05-23T09:02:43;6.97;;;4.00;;
34673;SDS011;20879;55.668;37.858;2023-05-23T09:05:42;6.63;;;3.97;;
34673;SDS011;20879;55.668;37.858;2023-05-23T09:08:12;8.55;;;4.30;;
34673;SDS011;20879;55.668;37.858;2023-05-23T09:10:46;7.32;;;3.55;;
34673;SDS011;20879;55.668;37.858;2023-05-23T09:13:18;9.10;;;4.35;;
34673;SDS011;20879;55.668;37.858;2023-05-23T09:16:00;7.95;;;3.55;;
34673;SDS011;20879;55.668;37.858;2023-05-23T09:18:39;8.75;;;4.03;;
34673;SDS011;20879;55.668;37.858;2023-05-23T09:21:13;9.70;;;4.00;;
34673;SDS011;20879;55.668;37.858;2023-05-23T09:23:53;5.43;;;3.58;;
34673;SDS011;20879;55.668;37.858;2023-05-23T09:26:27;8.23;;;4.13;;
34673;SDS011;20879;55.668;37.858;2023-05-23T09:29:04;7.63;;;3.88;;
34673;SDS011;20879;55.668;37.858;2023-05-23T09:31:34;9.32;;;3.80;;
34673;SDS011;20879;55.668;37.858;2023-05-23T09:34:04;8.00;;;3.88;;
34673;SDS011;20879;55.668;37.858;2023-05-23T09:36:37;7.35;;;3.72;;
34673;SDS011;20879;55.668;37.858;2023-05-23T09:39:14;6.93;;;3.60;;
34673;SDS011;20879;55.668;37.858;2023-05-23T09:42:04;7.80;;;3.60;;
34673;SDS011;20879;55.668;37.858;2023-05-23T09:44:40;5.55;;;3.28;;
34673;SDS011;20879;55.668;37.858;2023-05-23T09:47:10;5.57;;;3.40;;
34673;SDS011;20879;55.668;37.858;2023-05-23T09:49:39;5.15;;;3.13;;
34673;SDS011;20879;55.668;37.858;2023-05-23T09:54:40;6.40;;;3.13;;
34673;SDS011;20879;55.668;37.858;2023-05-23T09:57:14;5.50;;;3.30;;
34673;SDS011;20879;55.668;37.858;2023-05-23T09:59:51;6.85;;;3.45;;
34673;SDS011;20879;55.668;37.858;2023-05-23T10:02:50;5.95;;;3.40;;
34673;SDS011;20879;55.668;37.858;2023-05-23T10:05:37;4.60;;;3.55;;
34673;SDS011;20879;55.668;37.858;2023-05-23T10:08:17;9.57;;;3.80;;
34673;SDS011;20879;55.668;37.858;2023-05-23T10:14:03;7.93;;;3.90;;
34673;SDS011;20879;55.668;37.858;2023-05-23T10:16:37;6.60;;;3.75;;
34673;SDS011;20879;55.668;37.858;2023-05-23T10:19:19;9.40;;;4.60;;
34673;SDS011;20879;55.668;37.858;2023-05-23T10:21:56;6.70;;;4.15;;
34673;SDS011;20879;55.668;37.858;2023-05-23T10:24:28;7.20;;;4.47;;
34673;SDS011;20879;55.668;37.858;2023-05-23T10:27:13;7.65;;;4.40;;
34673;SDS011;20879;55.668;37.858;2023-05-23T10:29:44;11.07;;;4.70;;
34673;SDS011;20879;55.668;37.858;2023-05-23T10:32:14;9.95;;;4.50;;
34673;SDS011;20879;55.668;37.858;2023-05-23T10:34:53;8.30;;;4.55;;
34673;SDS011;20879;55.668;37.858;2023-05-23T10:37:32;8.05;;;4.93;;
34673;SDS011;20879;55.668;37.858;2023-05-23T10:40:10;8.70;;;5.40;;
34673;SDS011;20879;55.668;37.858;2023-05-23T10:42:58;9.95;;;5.38;;
34673;SDS011;20879;55.668;37.858;2023-05-23T10:45:51;8.05;;;5.10;;
34673;SDS011;20879;55.668;37.858;2023-05-23T10:48:39;9.20;;;5.63;;
34673;SDS011;20879;55.668;37.858;2023-05-23T10:51:10;11.98;;;5.50;;
34673;SDS011;20879;55.668;37.858;2023-05-23T10:53:46;10.30;;;6.43;;
34673;SDS011;20879;55.668;37.858;2023-05-23T10:56:22;13.23;;;5.88;;
34673;SDS011;20879;55.668;37.858;2023-05-23T10:58:52;11.85;;;5.97;;
34673;SDS011;20879;55.668;37.858;2023-05-23T11:01:25;12.15;;;6.40;;
34673;SDS011;20879;55.668;37.858;2023-05-23T11:03:55;14.30;;;6.78;;
34673;SDS011;20879;55.668;37.858;2023-05-23T11:06:30;9.20;;;5.95;;
34673;SDS011;20879;55.668;37.858;2023-05-23T11:09:04;8.55;;;5.90;;
34673;SDS011;20879;55.668;37.858;2023-05-23T11:11:58;10.00;;;6.20;;
34673;SDS011;20879;55.668;37.858;2023-05-23T11:17:37;10.57;;;6.35;;
34673;SDS011;20879;55.668;37.858;2023-05-23T11:20:32;8.15;;;5.97;;
34673;SDS011;20879;55.668;37.858;2023-05-23T11:23:07;11.32;;;7.13;;
34673;SDS011;20879;55.668;37.858;2023-05-23T11:25:42;9.77;;;6.80;;
34673;SDS011;20879;55.668;37.858;2023-05-23T11:28:13;13.88;;;7.30;;
34673;SDS011;20879;55.668;37.858;2023-05-23T11:30:42;12.80;;;7.00;;
34673;SDS011;20879;55.668;37.858;2023-05-23T11:33:17;10.02;;;6.70;;
34673;SDS011;20879;55.668;37.858;2023-05-23T11:38:22;8.68;;;5.68;;
34673;SDS011;20879;55.668;37.858;2023-05-23T11:40:52;10.15;;;6.40;;
34673;SDS011;20879;55.668;37.858;2023-05-23T11:43:22;12.82;;;6.32;;
34673;SDS011;20879;55.668;37.858;2023-05-23T11:45:52;10.95;;;6.82;;
34673;SDS011;20879;55.668;37.858;2023-05-23T11:48:23;9.02;;;5.68;;
34673;SDS011;20879;55.668;37.858;2023-05-23T11:50:53;9.73;;;5.93;;
34673;SDS011;20879;55.668;37.858;2023-05-23T11:53:22;8.30;;;6.13;;
34673;SDS011;20879;55.668;37.858;2023-05-23T11:58:47;7.18;;;5.40;;
34673;SDS011;20879;55.668;37.858;2023-05-23T12:01:17;6.70;;;5.50;;
34673;SDS011;20879;55.668;37.858;2023-05-23T12:03:49;8.90;;;5.50;;
34673;SDS011;20879;55.668;37.858;2023-05-23T12:06:24;8.68;;;4.93;;
34673;SDS011;20879;55.668;37.858;2023-05-23T12:08:53;8.52;;;5.22;;
34673;SDS011;20879;55.668;37.858;2023-05-23T12:11:30;10.55;;;6.20;;
34673;SDS011;20879;55.668;37.858;2023-05-23T12:13:59;7.90;;;5.57;;
34673;SDS011;20879;55.668;37.858;2023-05-23T12:16:33;8.68;;;5.75;;
34673;SDS011;20879;55.668;37.858;2023-05-23T12:19:12;14.50;;;5.85;;
34673;SDS011;20879;55.668;37.858;2023-05-23T12:21:54;8.25;;;5.90;;
34673;SDS011;20879;55.668;37.858;2023-05-23T12:24:23;7.95;;;5.30;;
34673;SDS011;20879;55.668;37.858;2023-05-23T12:26:53;10.57;;;5.00;;
34673;SDS011;20879;55.668;37.858;2023-05-23T12:29:27;8.13;;;5.53;;
34673;SDS011;20879;55.668;37.858;2023-05-23T12:32:07;8.65;;;4.30;;
34673;SDS011;20879;55.668;37.858;2023-05-23T12:34:41;6.95;;;4.18;;
34673;SDS011;20879;55.668;37.858;2023-05-23T12:37:11;5.20;;;3.70;;
34673;SDS011;20879;55.668;37.858;2023-05-23T12:39:46;10.55;;;5.93;;
34673;SDS011;20879;55.668;37.858;2023-05-23T12:42:16;7.88;;;4.05;;
34673;SDS011;20879;55.668;37.858;2023-05-23T12:51:14;10.43;;;4.95;;
34673;SDS011;20879;55.668;37.858;2023-05-23T12:53:55;8.93;;;5.55;;
34673;SDS011;20879;55.668;37.858;2023-05-23T12:56:25;9.02;;;5.65;;
34673;SDS011;20879;55.668;37.858;2023-05-23T12:58:54;9.57;;;5.85;;
34673;SDS011;20879;55.668;37.858;2023-05-23T13:01:24;8.60;;;5.70;;
34673;SDS011;20879;55.668;37.858;2023-05-23T13:03:59;8.32;;;5.38;;
34673;SDS011;20879;55.668;37.858;2023-05-23T13:06:31;8.93;;;5.93;;
34673;SDS011;20879;55.668;37.858;2023-05-23T13:09:01;11.50;;;6.50;;
34673;SDS011;20879;55.668;37.858;2023-05-23T13:11:36;12.30;;;5.32;;
34673;SDS011;20879;55.668;37.858;2023-05-23T13:14:05;7.93;;;5.40;;
34673;SDS011;20879;55.668;37.858;2023-05-23T13:16:35;8.93;;;4.75;;
34673;SDS011;20879;55.668;37.858;2023-05-23T13:19:09;7.38;;;5.07;;
34673;SDS011;20879;55.668;37.858;2023-05-23T13:21:41;8.30;;;4.97;;
34673;SDS011;20879;55.668;37.858;2023-05-23T13:24:17;10.57;;;5.85;;
34673;SDS011;20879;55.668;37.858;2023-05-23T13:26:46;10.18;;;5.28;;
34673;SDS011;20879;55.668;37.858;2023-05-23T13:29:21;9.32;;;5.35;;
34673;SDS011;20879;55.668;37.858;2023-05-23T13:31:50;12.57;;;5.55;;
34673;SDS011;20879;55.668;37.858;2023-05-23T13:34:20;11.65;;;5.28;;
34673;SDS011;20879;55.668;37.858;2023-05-23T13:36:51;12.05;;;5.30;;
34673;SDS011;20879;55.668;37.858;2023-05-23T13:39:22;7.35;;;4.93;;
34673;SDS011;20879;55.668;37.858;2023-05-23T13:41:52;8.25;;;4.80;;
34673;SDS011;20879;55.668;37.858;2023-05-23T13:44:21;8.68;;;4.40;;
34673;SDS011;20879;55.668;37.858;2023-05-23T13:46:51;7.88;;;4.65;;
34673;SDS011;20879;55.668;37.858;2023-05-23T13:49:20;10.07;;;4.88;;
34673;SDS011;20879;55.668;37.858;2023-05-23T13:51:57;12.35;;;4.95;;
34673;SDS011;20879;55.668;37.858;2023-05-23T13:56:55;7.13;;;3.85;;
34673;SDS011;20879;55.668;37.858;2023-05-23T13:59:25;11.60;;;4.60;;
34673;SDS011;20879;55.668;37.858;2023-05-23T14:01:54;11.70;;;5.20;;
34673;SDS011;20879;55.668;37.858;2023-05-23T14:04:25;7.22;;;4.50;;
34673;SDS011;20879;55.668;37.858;2023-05-23T14:07:02;10.20;;;4.28;;
34673;SDS011;20879;55.668;37.858;2023-05-23T14:09:32;9.35;;;5.03;;
34673;SDS011;20879;55.668;37.858;2023-05-23T14:12:02;7.68;;;4.45;;
34673;SDS011;20879;55.668;37.858;2023-05-23T14:14:31;9.90;;;5.03;;
34673;SDS011;20879;55.668;37.858;2023-05-23T14:17:06;6.97;;;4.53;;
34673;SDS011;20879;55.668;37.858;2023-05-23T14:19:35;9.05;;;5.03;;
34673;SDS011;20879;55.668;37.858;2023-05-23T14:22:07;8.27;;;4.97;;
34673;SDS011;20879;55.668;37.858;2023-05-23T14:24:42;9.50;;;4.38;;
34673;SDS011;20879;55.668;37.858;2023-05-23T14:29:47;10.88;;;4.93;;
34673;SDS011;20879;55.668;37.858;2023-05-23T14:32:17;9.07;;;5.10;;
34673;SDS011;20879;55.668;37.858;2023-05-23T14:34:48;6.53;;;4.75;;
34673;SDS011;20879;55.668;37.858;2023-05-23T14:37:20;10.18;;;5.40;;
34673;SDS011;20879;55.668;37.858;2023-05-23T14:39:49;9.75;;;5.28;;
34673;SDS011;20879;55.668;37.858;2023-05-23T14:42:18;12.15;;;4.50;;
34673;SDS011;20879;55.668;37.858;2023-05-23T14:44:54;8.90;;;4.88;;
34673;SDS011;20879;55.668;37.858;2023-05-23T14:47:24;7.70;;;5.22;;
34673;SDS011;20879;55.668;37.858;2023-05-23T14:49:53;8.40;;;5.15;;
34673;SDS011;20879;55.668;37.858;2023-05-23T14:52:25;8.95;;;4.75;;
34673;SDS011;20879;55.668;37.858;2023-05-23T14:54:54;8.93;;;5.22;;
34673;SDS011;20879;55.668;37.858;2023-05-23T14:57:24;11.00;;;4.93;;
34673;SDS011;20879;55.668;37.858;2023-05-23T14:59:58;9.50;;;4.68;;
34673;SDS011;20879;55.668;37.858;2023-05-23T15:02:33;8.55;;;4.68;;
34673;SDS011;20879;55.668;37.858;2023-05-23T15:05:21;9.38;;;4.68;;
34673;SDS011;20879;55.668;37.858;2023-05-23T15:08:08;6.60;;;4.28;;
34673;SDS011;20879;55.668;37.858;2023-05-23T15:13:09;9.43;;;4.40;;
34673;SDS011;20879;55.668;37.858;2023-05-23T15:15:38;8.55;;;4.57;;
34673;SDS011;20879;55.668;37.858;2023-05-23T15:18:14;11.10;;;5.10;;
34673;SDS011;20879;55.668;37.858;2023-05-23T15:21:03;7.78;;;4.90;;
34673;SDS011;20879;55.668;37.858;2023-05-23T15:23:53;8.25;;;5.10;;
34673;SDS011;20879;55.668;37.858;2023-05-23T15:26:24;9.18;;;5.40;;
34673;SDS011;20879;55.668;37.858;2023-05-23T15:28:58;12.07;;;5.88;;
34673;SDS011;20879;55.668;37.858;2023-05-23T15:31:37;11.65;;;5.85;;
34673;SDS011;20879;55.668;37.858;2023-05-23T15:34:06;9.73;;;5.53;;
34673;SDS011;20879;55.668;37.858;2023-05-23T15:36:42;10.18;;;5.97;;
34673;SDS011;20879;55.668;37.858;2023-05-23T15:39:14;10.98;;;5.82;;
34673;SDS011;20879;55.668;37.858;2023-05-23T15:41:43;14.35;;;6.35;;
34673;SDS011;20879;55.668;37.858;2023-05-23T15:44:13;12.32;;;5.65;;
34673;SDS011;20879;55.668;37.858;2023-05-23T15:46:46;11.35;;;5.88;;
34673;SDS011;20879;55.668;37.858;2023-05-23T15:49:16;11.80;;;5.93;;